Terminal Aerodrome Forecast
Issued by NWS

Home | Current Version | Previous Version | Text Only | Print | Product List | Glossary On
Versions: 1 2 3 4 5 6 7 8 9 10 11 12 13 14 15 16 17 18 19 20 21 22 23 24 25 26 27 28 29 30 31 32
000
FTAK31 PANC 201214 AAA
TAFADU
TAF AMD
PADU 201214Z 2012/2112 28012G20KT P6SM VCSH SCT025 BKN035
      TEMPO 2012/2015 4SM -SHRASN BKN025
     FM201600 26007KT P6SM SCT030 BKN070
     FM211000 13012KT P6SM -SHSNRA SCT025 BKN040=

USA.gov is the U.S. government's official web portal to all federal, state and local government web resources and services.